createdAt,value
2022-11-29T00:00:22.156Z,6.10
2022-11-29T00:02:58.984Z,6.11
2022-11-29T00:05:40.494Z,6.09
2022-11-29T00:08:20.861Z,6.09
2022-11-29T00:21:32.852Z,6.06
2022-11-29T00:24:07.172Z,6.06
2022-11-29T00:26:40.848Z,6.06
2022-11-29T00:29:14.723Z,6.04
2022-11-29T00:31:48.877Z,6.06
2022-11-29T00:48:25.844Z,6.03
2022-11-29T00:51:05.852Z,6.02
2022-11-29T00:53:39.220Z,6.02
2022-11-29T00:56:13.857Z,6.02
2022-11-29T00:58:53.926Z,6.03
2022-11-29T01:01:33.893Z,6.04
2022-11-29T01:04:09.048Z,6.04
2022-11-29T01:13:44.859Z,6.03
2022-11-29T01:16:18.252Z,6.04
2022-11-29T01:18:51.858Z,6.00
2022-11-29T01:21:27.125Z,5.98
2022-11-29T01:24:00.843Z,6.01
2022-11-29T01:26:34.160Z,6.01
2022-11-29T01:29:07.845Z,6.01
2022-11-29T01:42:20.865Z,6.02
2022-11-29T01:45:15.056Z,6.02
2022-11-29T01:47:59.453Z,6.02
2022-11-29T01:50:33.067Z,6.01
2022-11-29T01:53:06.829Z,6.02
2022-11-29T02:07:07.902Z,6.02
2022-11-29T02:09:43.116Z,5.98
2022-11-29T02:12:32.848Z,5.97
2022-11-29T02:15:33.091Z,5.96
2022-11-29T02:18:17.879Z,5.96
2022-11-29T02:21:30.420Z,5.96
2022-11-29T02:35:02.805Z,5.96
2022-11-29T02:38:27.829Z,5.94
2022-11-29T02:41:36.529Z,5.93
2022-11-29T02:44:54.834Z,5.94
2022-11-29T02:47:47.328Z,5.95
2022-11-29T03:01:02.942Z,5.93
2022-11-29T03:03:52.818Z,5.93
2022-11-29T03:06:40.450Z,5.93
2022-11-29T03:09:34.834Z,5.94
2022-11-29T03:12:25.388Z,5.93
2022-11-29T03:28:56.827Z,5.91
2022-11-29T03:31:36.716Z,5.90
2022-11-29T03:34:33.808Z,5.91
2022-11-29T03:37:17.117Z,5.90
2022-11-29T03:40:02.821Z,5.90
2022-11-29T03:42:47.196Z,5.89
2022-11-29T03:55:59.775Z,5.87
2022-11-29T03:59:00.828Z,5.87
2022-11-29T04:02:07.865Z,5.88
2022-11-29T04:05:36.816Z,5.86
2022-11-29T04:08:47.712Z,5.87
2022-11-29T04:22:33.776Z,5.85
2022-11-29T04:25:57.830Z,5.86
2022-11-29T04:29:07.717Z,5.84
2022-11-29T04:32:19.805Z,5.85
2022-11-29T04:49:30.787Z,5.84
2022-11-29T04:52:53.823Z,5.83
2022-11-29T04:55:43.840Z,5.82
2022-11-29T04:58:35.483Z,5.82
2022-11-29T05:01:25.311Z,5.80
2022-11-29T05:04:22.796Z,5.79
2022-11-29T05:14:36.759Z,5.80
2022-11-29T05:17:37.810Z,5.78
2022-11-29T05:20:35.693Z,5.75
2022-11-29T05:23:35.872Z,5.75
2022-11-29T05:26:19.887Z,5.77
2022-11-29T05:29:09.829Z,5.77
2022-11-29T05:42:45.860Z,5.75
2022-11-29T05:45:30.653Z,5.75
2022-11-29T05:48:21.812Z,5.75
2022-11-29T05:51:11.061Z,5.73
2022-11-29T05:54:06.791Z,5.74
2022-11-29T06:08:04.833Z,5.69
2022-11-29T06:10:51.461Z,5.69
2022-11-29T06:13:58.803Z,5.70
2022-11-29T06:16:57.995Z,5.69
2022-11-29T06:20:18.797Z,5.68
2022-11-29T06:23:20.972Z,5.67
2022-11-29T06:36:25.753Z,5.63
2022-11-29T06:39:08.776Z,5.62
2022-11-29T06:41:42.144Z,5.61
2022-11-29T06:44:16.776Z,5.62
2022-11-29T06:47:05.045Z,5.61
2022-11-29T07:03:51.824Z,5.60
2022-11-29T07:06:28.022Z,5.60
2022-11-29T07:09:06.772Z,5.61
2022-11-29T07:11:42.328Z,5.61
2022-11-29T07:14:16.791Z,5.59
2022-11-29T07:17:05.981Z,5.59
2022-11-29T07:30:16.740Z,5.56
2022-11-29T07:33:11.818Z,5.56
2022-11-29T07:35:59.397Z,5.57
2022-11-29T07:38:56.782Z,5.56
2022-11-29T07:41:43.824Z,5.56
2022-11-29T07:55:00.738Z,5.54
2022-11-29T07:57:40.823Z,5.56
2022-11-29T08:00:15.597Z,5.59
2022-11-29T08:02:49.834Z,5.60
2022-11-29T08:05:23.171Z,5.61
2022-11-29T08:07:57.343Z,5.62
2022-11-29T08:24:34.740Z,5.66
2022-11-29T08:27:14.783Z,5.65
2022-11-29T08:29:47.963Z,5.65
2022-11-29T08:32:14.677Z,5.68
2022-11-29T08:34:54.853Z,5.67
2022-11-29T08:37:28.082Z,5.68
2022-11-29T08:50:23.753Z,5.69
2022-11-29T08:53:04.744Z,5.70
2022-11-29T08:55:40.665Z,5.73
2022-11-29T08:58:16.826Z,5.75
2022-11-29T09:00:50.067Z,5.76
2022-11-29T09:03:23.758Z,5.77
2022-11-29T09:16:39.851Z,5.84
2022-11-29T09:19:14.080Z,5.84
2022-11-29T09:21:53.776Z,5.85
2022-11-29T09:24:26.940Z,5.87
2022-11-29T09:27:06.755Z,5.89
2022-11-29T09:43:56.722Z,6.02
2022-11-29T09:46:57.228Z,6.01
2022-11-29T09:50:03.292Z,6.02
2022-11-29T09:52:58.731Z,6.03
2022-11-29T09:55:49.255Z,6.04
2022-11-29T09:58:35.737Z,6.06
2022-11-29T10:08:55.720Z,6.10
2022-11-29T10:11:45.901Z,6.09
2022-11-29T10:14:26.646Z,6.11
2022-11-29T10:17:21.757Z,6.13
2022-11-29T10:20:04.594Z,6.13
2022-11-29T10:22:51.758Z,6.14
2022-11-29T10:36:08.757Z,6.18
2022-11-29T10:38:44.404Z,6.19
2022-11-29T10:41:25.764Z,6.21
2022-11-29T10:44:00.054Z,6.23
2022-11-29T10:46:39.737Z,6.24
2022-11-29T10:49:18.228Z,6.25
2022-11-29T11:02:26.701Z,6.33
2022-11-29T11:05:07.803Z,6.36
2022-11-29T11:07:41.077Z,6.36
2022-11-29T11:10:31.722Z,6.38
2022-11-29T11:13:20.071Z,6.40
2022-11-29T11:16:05.428Z,6.40
2022-11-29T11:18:40.944Z,6.40
2022-11-29T11:31:30.507Z,6.42
2022-11-29T11:34:35.736Z,6.43
2022-11-29T11:37:21.817Z,6.44
2022-11-29T11:40:31.827Z,6.42
2022-11-29T11:43:04.984Z,6.42
2022-11-29T11:56:06.685Z,6.39
2022-11-29T11:58:56.727Z,6.38
2022-11-29T12:01:37.154Z,6.35
2022-11-29T12:04:23.725Z,6.39
2022-11-29T12:07:02.386Z,6.40
2022-11-29T12:23:41.717Z,6.45
2022-11-29T12:26:49.031Z,6.47
2022-11-29T12:29:26.712Z,6.48
2022-11-29T12:32:22.453Z,6.50
2022-11-29T12:35:37.705Z,6.52
2022-11-29T12:38:43.459Z,6.53
2022-11-29T12:51:50.683Z,6.58
2022-11-29T12:54:58.716Z,6.58
2022-11-29T12:57:44.327Z,6.58
2022-11-29T13:00:27.696Z,6.56
2022-11-29T13:03:19.456Z,6.54
2022-11-29T13:16:40.693Z,6.51
2022-11-29T13:19:31.779Z,6.51
2022-11-29T13:22:19.868Z,6.51
2022-11-29T13:25:06.781Z,6.49
2022-11-29T13:27:55.267Z,6.48
2022-11-29T13:44:36.741Z,6.42
2022-11-29T13:47:13.839Z,6.41
2022-11-29T13:50:01.718Z,6.42
2022-11-29T13:52:40.509Z,6.39
2022-11-29T13:55:27.722Z,6.39
2022-11-29T13:58:17.370Z,6.36
2022-11-29T14:11:27.666Z,6.33
2022-11-29T14:14:13.677Z,6.34
2022-11-29T14:16:53.153Z,6.33
2022-11-29T14:19:36.808Z,6.32
2022-11-29T14:22:27.447Z,6.29
2022-11-29T14:36:08.664Z,6.26
2022-11-29T14:39:02.719Z,6.25
2022-11-29T14:41:55.288Z,6.22
2022-11-29T14:44:41.093Z,6.23
2022-11-29T14:47:26.870Z,6.23
2022-11-29T15:03:54.738Z,6.19
2022-11-29T15:06:30.722Z,6.18
2022-11-29T15:09:18.678Z,6.18
2022-11-29T15:12:00.096Z,6.17
2022-11-29T15:14:56.681Z,6.16
2022-11-29T15:17:41.507Z,6.14
2022-11-29T15:30:42.694Z,6.13
2022-11-29T15:33:29.664Z,6.14
2022-11-29T15:36:08.009Z,6.14
2022-11-29T15:38:50.715Z,6.14
2022-11-29T15:41:29.227Z,6.14
2022-11-29T15:44:12.677Z,6.13
2022-11-29T15:57:32.680Z,6.12
2022-11-29T16:00:11.753Z,6.11
2022-11-29T16:02:57.663Z,6.11
2022-11-29T16:05:35.121Z,6.11
2022-11-29T16:08:23.679Z,6.11
2022-11-29T16:25:17.616Z,6.07
2022-11-29T16:28:00.680Z,6.08
2022-11-29T16:30:40.352Z,6.06
2022-11-29T16:33:28.736Z,6.07
2022-11-29T16:36:13.320Z,6.07
2022-11-29T16:38:59.675Z,6.06
2022-11-29T16:52:31.677Z,6.07
2022-11-29T16:55:05.558Z,6.08
2022-11-29T16:57:39.659Z,6.06
2022-11-29T17:00:24.539Z,6.08
2022-11-29T17:03:04.640Z,6.06
2022-11-29T17:16:50.690Z,6.03
2022-11-29T17:19:24.643Z,6.01
2022-11-29T17:21:58.658Z,6.01
2022-11-29T17:24:32.014Z,6.01
2022-11-29T17:27:06.190Z,6.02
2022-11-29T17:29:39.835Z,6.01
2022-11-29T17:32:14.667Z,6.00
2022-11-29T17:45:24.660Z,6.00
2022-11-29T17:48:00.637Z,6.02
2022-11-29T17:50:34.640Z,6.01
2022-11-29T17:53:07.862Z,6.01
2022-11-29T17:55:42.637Z,6.00
2022-11-29T17:58:15.932Z,6.00
2022-11-29T18:11:13.616Z,5.99
2022-11-29T18:13:53.632Z,5.97
2022-11-29T18:16:30.380Z,5.96
2022-11-29T18:19:12.657Z,5.99
2022-11-29T18:21:46.444Z,5.96
2022-11-29T18:24:20.657Z,5.96
2022-11-29T18:38:06.420Z,5.94
2022-11-29T18:40:25.802Z,5.94
2022-11-29T18:42:58.641Z,5.93
2022-11-29T18:45:35.327Z,5.92
2022-11-29T18:48:15.688Z,5.92
2022-11-29T18:50:48.839Z,5.93
2022-11-29T18:53:23.672Z,5.93
2022-11-29T19:03:51.608Z,5.89
2022-11-29T19:06:39.260Z,5.88
2022-11-29T19:09:17.496Z,5.87
2022-11-29T19:11:57.643Z,5.85
2022-11-29T19:14:30.790Z,5.86
2022-11-29T19:17:04.692Z,5.84
2022-11-29T19:19:37.913Z,5.83
2022-11-29T19:32:27.589Z,5.82
2022-11-29T19:35:08.730Z,5.81
2022-11-29T19:37:41.825Z,5.80
2022-11-29T19:40:15.619Z,5.79
2022-11-29T19:42:49.584Z,5.78
2022-11-29T19:59:12.676Z,5.71
2022-11-29T20:01:45.865Z,5.72
2022-11-29T20:04:19.629Z,5.70
2022-11-29T20:06:52.777Z,5.70
2022-11-29T20:09:26.627Z,5.69
2022-11-29T20:11:59.934Z,5.68
2022-11-29T20:14:35.619Z,5.67
2022-11-29T20:24:22.585Z,5.64
2022-11-29T20:27:02.641Z,5.65
2022-11-29T20:29:37.893Z,5.65
2022-11-29T20:32:11.592Z,5.65
2022-11-29T20:34:46.036Z,5.65
2022-11-29T20:37:44.308Z,5.64
2022-11-29T20:51:39.607Z,5.61
2022-11-29T20:55:16.253Z,5.62
2022-11-29T20:59:01.660Z,5.61
2022-11-29T21:02:38.085Z,5.60
2022-11-29T21:20:01.595Z,5.57
2022-11-29T21:23:41.117Z,5.57
2022-11-29T21:27:24.598Z,5.55
2022-11-29T21:31:03.998Z,5.56
2022-11-29T21:34:47.866Z,5.58
2022-11-29T21:45:24.585Z,5.57
2022-11-29T21:49:07.605Z,5.58
2022-11-29T21:52:28.059Z,5.59
2022-11-29T21:56:11.585Z,5.58
2022-11-29T21:59:48.235Z,5.58
2022-11-29T22:13:35.559Z,5.58
2022-11-29T22:17:18.665Z,5.57
2022-11-29T22:20:26.572Z,5.59
2022-11-29T22:23:40.571Z,5.59
2022-11-29T22:39:00.556Z,5.58
2022-11-29T22:41:54.917Z,5.59
2022-11-29T22:44:37.848Z,5.61
2022-11-29T22:47:35.881Z,5.61
2022-11-29T22:50:10.809Z,5.59
2022-11-29T22:52:43.799Z,5.58
2022-11-29T23:05:55.820Z,5.59
2022-11-29T23:08:28.992Z,5.60
2022-11-29T23:11:02.815Z,5.58
2022-11-29T23:13:38.727Z,5.59
2022-11-29T23:16:15.855Z,5.59
2022-11-29T23:18:49.358Z,5.58
2022-11-29T23:31:39.880Z,5.57
2022-11-29T23:34:19.835Z,5.56
2022-11-29T23:36:53.478Z,5.56
2022-11-29T23:39:26.833Z,5.55
2022-11-29T23:42:00.024Z,5.55
2022-11-29T23:44:26.688Z,5.54
